Time;durP1;ratioP1;P1;durP2;ratioP2;P2;SDS_P1;SDS_P2;PMS_P1;PMS_P2;Temp;Humidity;BMP_temperature;BMP_pressure;BME280_temperature;BME280_humidity;BME280_pressure;Samples;Min_cycle;Max_cycle;Signal;HPM_P1;HPM_P2
2022/01/13 00:00:29;;;;;;;10.48;2.88;;;;;;;-149.78;100.00;50573.16;5073599;28;20895;-67
2022/01/13 00:02:56;;;;;;;10.85;3.00;;;;;;;-149.78;100.00;50561.41;5073854;28;20506;-63
2022/01/13 00:05:28;;;;;;;12.02;3.50;;;;;;;-149.78;100.00;50600.53;5072603;28;20053;-67
2022/01/13 00:07:55;;;;;;;;;;;;;;;-149.78;100.00;50571.19;5074111;28;20503;-63
2022/01/13 00:10:22;;;;;;;12.20;2.92;;;;;;;-149.78;100.00;50549.69;5072863;28;19954;-63
2022/01/13 00:12:56;;;;;;;17.00;3.85;;;;;;;-149.78;100.00;50543.81;5073428;28;20051;-67
2022/01/13 00:15:38;;;;;;;11.02;2.75;;;;;;;-149.78;100.00;50614.22;5073460;28;20036;-67
2022/01/13 00:18:17;;;;;;;11.23;2.83;;;;;;;-149.78;100.00;50557.50;5073495;28;20484;-67
2022/01/13 00:26:16;;;;;;;14.70;3.13;;;;;;;-149.78;100.00;50543.81;5073425;28;20075;-63
2022/01/13 00:28:45;;;;;;;10.43;3.38;;;;;;;-149.78;100.00;50545.75;5072924;28;20056;-63
2022/01/13 00:31:11;;;;;;;9.40;3.28;;;;;;;-149.78;100.00;50592.72;5073346;28;20064;-67
2022/01/13 00:33:43;;;;;;;7.20;3.25;;;;;;;-149.78;100.00;50580.97;5055459;28;20028;-66
2022/01/13 00:36:08;;;;;;;13.32;3.30;;;;;;;-149.78;100.00;50596.63;5073385;28;20937;-67
2022/01/13 00:38:34;;;;;;;11.02;3.28;;;;;;;-149.78;100.00;50592.72;5055499;28;20032;-66
2022/01/13 00:41:01;;;;;;;12.63;3.72;;;;;;;-149.78;100.00;50553.59;5073219;28;20135;-67
2022/01/13 00:43:28;;;;;;;7.70;3.13;;;;;;;-149.78;100.00;50545.75;5073120;28;20102;-67
2022/01/13 00:45:53;;;;;;;11.25;3.38;;;;;;;-149.78;100.00;50588.78;5073028;28;20476;-67
2022/01/13 00:48:19;;;;;;;17.40;3.95;;;;;;;-149.78;100.00;50549.69;5073089;28;20033;-67
2022/01/13 00:50:46;;;;;;;11.23;3.50;;;;;;;-149.78;100.00;50518.38;5073054;28;20361;-63
2022/01/13 00:53:12;;;;;;;10.60;3.83;;;;;;;-149.78;100.00;50534.03;5073061;28;20047;-63
2022/01/13 00:58:22;;;;;;;12.82;4.00;;;;;;;-149.78;100.00;50592.72;5054550;28;20403;-63
2022/01/13 01:00:48;;;;;;;12.60;4.55;;;;;;;-149.78;100.00;50549.69;5072639;28;20040;-63
2022/01/13 01:03:13;;;;;;;17.10;3.83;;;;;;;-149.78;100.00;50575.09;5072680;28;20039;-63
2022/01/13 01:05:39;;;;;;;12.45;3.90;;;;;;;-149.78;100.00;50553.59;5072058;28;20040;-63
2022/01/13 01:08:07;;;;;;;13.55;3.42;;;;;;;-149.78;100.00;50561.41;5071651;28;20036;-63
2022/01/13 01:10:33;;;;;;;9.85;3.65;;;;;;;-149.78;100.00;50557.50;5071752;28;20036;-63
2022/01/13 01:13:04;;;;;;;16.17;3.72;;;;;;;-149.78;100.00;50596.63;5037640;28;20043;-63
2022/01/13 01:15:34;;;;;;;12.45;3.75;;;;;;;-149.78;100.00;50580.97;5071703;28;20032;-63
2022/01/13 01:18:06;;;;;;;18.20;3.85;;;;;;;-149.78;100.00;50551.63;5072522;28;20060;-63
2022/01/13 01:20:45;;;;;;;10.38;3.47;;;;;;;-149.78;100.00;50588.78;5072368;28;20043;-63
2022/01/13 01:23:16;;;;;;;10.30;3.75;;;;;;;-149.78;100.00;50541.84;5074896;28;20052;-63
2022/01/13 01:26:00;;;;;;;13.10;3.85;;;;;;;-149.78;100.00;50577.06;5075600;28;20119;-63
2022/01/13 01:28:36;;;;;;;17.02;3.25;;;;;;;-149.78;100.00;50596.63;5075626;28;20048;-63
2022/01/13 01:31:02;;;;;;;18.30;3.20;;;;;;;-149.78;100.00;50584.88;5075940;28;20042;-63
2022/01/13 01:33:28;;;;;;;14.55;3.30;;;;;;;-149.78;100.00;50575.09;5075604;28;20028;-63
2022/01/13 01:35:54;;;;;;;8.75;3.08;;;;;;;-149.78;100.00;50563.38;5076462;28;20383;-63
2022/01/13 01:38:21;;;;;;;9.45;3.00;;;;;;;-149.78;100.00;50573.16;5076197;28;20528;-63
2022/01/13 01:40:47;;;;;;;7.38;2.58;;;;;;;-149.78;100.00;50545.75;5076109;28;20039;-64
2022/01/13 01:43:13;;;;;;;9.63;2.60;;;;;;;-149.78;100.00;50549.69;5076224;28;20408;-63
2022/01/13 01:45:44;;;;;;;15.50;3.00;;;;;;;-149.78;100.00;50579.00;5075876;28;20036;-63
2022/01/13 01:48:11;;;;;;;7.35;2.83;;;;;;;-149.78;100.00;50557.50;5075946;28;20126;-63
2022/01/13 01:50:38;;;;;;;7.20;2.75;;;;;;;-149.78;100.00;50563.38;5057696;28;20037;-63
2022/01/13 01:53:05;;;;;;;11.20;2.40;;;;;;;-149.78;100.00;50559.47;5075430;28;20396;-63
2022/01/13 01:55:31;;;;;;;7.93;2.15;;;;;;;-149.78;100.00;50539.91;5075012;28;20064;-63
2022/01/13 01:57:57;;;;;;;7.88;2.22;;;;;;;-149.78;100.00;50553.59;5075378;28;20537;-63
2022/01/13 02:00:26;;;;;;;11.65;2.53;;;;;;;-149.78;100.00;50547.72;5075272;28;20032;-63
2022/01/13 02:02:55;;;;;;;6.65;2.15;;;;;;;-149.78;100.00;50553.59;5075845;28;20036;-63
2022/01/13 02:05:20;;;;;;;12.55;2.75;;;;;;;-149.78;100.00;50549.69;5075226;28;20036;-63
2022/01/13 02:07:46;;;;;;;11.52;2.38;;;;;;;-149.78;100.00;50561.41;5057212;28;20063;-63
2022/01/13 02:10:14;;;;;;;9.27;2.28;;;;;;;-149.78;100.00;50545.75;5075730;28;20093;-63
2022/01/13 02:12:45;;;;;;;9.55;2.13;;;;;;;-149.78;100.00;50510.56;5075806;28;20047;-63
2022/01/13 02:17:39;;;;;;;12.82;2.67;;;;;;;-149.78;100.00;50547.72;5057471;28;20043;-64
2022/01/13 02:20:06;;;;;;;4.78;1.80;;;;;;;-149.78;100.00;50530.13;5075762;28;20032;-63
2022/01/13 02:22:33;;;;;;;9.05;1.75;;;;;;;-149.78;100.00;50573.16;5075426;28;20036;-67
2022/01/13 02:24:59;;;;;;;12.68;2.08;;;;;;;-149.78;100.00;50541.84;5075657;28;20514;-67
2022/01/13 02:27:25;;;;;;;9.45;1.77;;;;;;;-149.78;100.00;50549.69;5075232;28;20041;-67
2022/01/13 02:29:51;;;;;;;7.25;2.13;;;;;;;-149.78;100.00;50537.94;5070663;28;20404;-63
2022/01/13 02:32:17;;;;;;;5.25;1.58;;;;;;;-149.78;100.00;50580.97;5055210;28;20040;-63
2022/01/13 02:34:43;;;;;;;6.78;1.65;;;;;;;-149.78;100.00;50549.69;5074232;28;20028;-63
2022/01/13 02:37:09;;;;;;;6.38;1.63;;;;;;;-149.78;100.00;50616.19;5057405;28;20522;-63
2022/01/13 02:39:35;;;;;;;6.43;1.52;;;;;;;-149.78;100.00;50545.75;5075175;28;20024;-63
2022/01/13 02:42:03;;;;;;;6.60;1.88;;;;;;;-149.78;100.00;50571.19;5075474;28;20037;-63
2022/01/13 02:44:30;;;;;;;7.25;1.55;;;;;;;-149.78;100.00;50565.31;5075358;28;20354;-63
2022/01/13 02:47:20;;;;;;;3.53;1.60;;;;;;;-149.78;100.00;50616.19;5074998;28;20040;-63
2022/01/13 02:49:46;;;;;;;6.90;1.90;;;;;;;-149.78;100.00;50553.59;5075203;28;20115;-63
2022/01/13 02:52:12;;;;;;;8.10;1.55;;;;;;;-149.78;100.00;50557.50;5057143;28;20033;-63
2022/01/13 02:54:40;;;;;;;3.85;1.95;;;;;;;-149.78;100.00;50592.72;5075175;28;20036;-63
2022/01/13 02:57:05;;;;;;;8.50;1.80;;;;;;;-149.78;100.00;50584.88;5075083;28;20071;-64
2022/01/13 02:59:31;;;;;;;6.05;1.48;;;;;;;-149.78;100.00;50553.59;5074899;28;20654;-63
2022/01/13 03:01:57;;;;;;;4.38;1.55;;;;;;;-149.78;100.00;50541.84;5075028;28;20479;-63
2022/01/13 03:04:24;;;;;;;5.10;1.30;;;;;;;-149.78;100.00;50557.50;5074340;28;20032;-63
2022/01/13 03:06:50;;;;;;;5.85;1.58;;;;;;;-149.78;100.00;50608.34;5074680;28;20514;-63
2022/01/13 03:09:16;;;;;;;7.78;1.80;;;;;;;-149.78;100.00;50553.59;5074484;28;20123;-63
2022/01/13 03:11:44;;;;;;;10.63;1.60;;;;;;;-149.78;100.00;50620.09;5074429;28;20056;-64
2022/01/13 03:14:11;;;;;;;4.63;1.00;;;;;;;-149.78;100.00;50612.25;5074544;28;20032;-63
2022/01/13 03:16:38;;;;;;;9.70;1.48;;;;;;;-149.78;100.00;50600.53;5074253;28;20040;-63
2022/01/13 03:19:04;;;;;;;4.63;1.40;;;;;;;-149.78;100.00;50586.84;5074320;28;20075;-63
2022/01/13 03:21:29;;;;;;;8.35;1.50;;;;;;;-149.78;100.00;50584.88;5074350;28;20072;-63
2022/01/13 03:23:55;;;;;;;5.00;1.27;;;;;;;-149.78;100.00;50557.50;5074681;28;20044;-63
2022/01/13 03:26:22;;;;;;;5.60;1.35;;;;;;;-149.78;100.00;50586.84;5056450;28;20041;-63
2022/01/13 03:29:04;;;;;;;9.23;1.48;;;;;;;-149.78;100.00;50596.63;5073999;28;20427;-63
2022/01/13 03:31:29;;;;;;;11.60;2.20;;;;;;;-149.78;100.00;50543.81;5074044;28;20119;-63
2022/01/13 03:33:55;;;;;;;8.98;1.40;;;;;;;-149.78;100.00;50573.16;5073239;28;20144;-63
2022/01/13 03:36:21;;;;;;;8.20;1.20;;;;;;;-149.78;100.00;50600.53;5073090;28;20036;-63
2022/01/13 03:38:47;;;;;;;2.38;1.10;;;;;;;-149.78;100.00;50600.53;5073265;28;20092;-63
2022/01/13 03:41:17;;;;;;;6.72;1.30;;;;;;;-149.78;100.00;50594.66;5073766;28;20032;-63
2022/01/13 03:43:42;;;;;;;8.38;1.30;;;;;;;-149.78;100.00;50573.16;5074017;28;20383;-63
2022/01/13 03:46:08;;;;;;;6.53;1.00;;;;;;;-149.78;100.00;50573.16;5073458;28;20041;-63
2022/01/13 03:48:34;;;;;;;3.95;1.33;;;;;;;-149.78;100.00;50584.88;5072968;28;20033;-63
2022/01/13 03:50:59;;;;;;;4.18;1.15;;;;;;;-149.78;100.00;50532.06;5054311;28;20493;-63
2022/01/13 03:53:28;;;;;;;7.63;1.45;;;;;;;-149.78;100.00;50532.06;5072818;28;20044;-63
2022/01/13 03:56:31;;;;;;;9.43;1.58;;;;;;;-149.78;100.00;50534.03;5073088;28;20032;-63
2022/01/13 03:59:42;;;;;;;10.35;1.60;;;;;;;-149.78;100.00;50565.31;5073365;28;20036;-63
2022/01/13 04:02:08;;;;;;;3.80;1.55;;;;;;;-149.78;100.00;50565.31;5058453;28;20036;-63
2022/01/13 04:04:40;;;;;;;5.07;1.38;;;;;;;-149.78;100.00;50612.25;5061015;28;20527;-63
2022/01/13 04:07:17;;;;;;;5.63;1.27;;;;;;;-149.78;100.00;50541.84;5073216;28;20387;-63
2022/01/13 04:09:43;;;;;;;11.88;1.60;;;;;;;-149.78;100.00;50575.09;5073430;28;20032;-63
2022/01/13 04:12:11;;;;;;;7.22;1.77;;;;;;;-149.78;100.00;50557.50;5073499;28;20039;-63
2022/01/13 04:14:48;;;;;;;5.97;1.52;;;;;;;-149.78;100.00;50545.75;5073355;28;20137;-63
2022/01/13 04:17:17;;;;;;;4.35;1.50;;;;;;;-149.78;100.00;50580.97;5073469;28;20037;-63
2022/01/13 04:19:43;;;;;;;5.85;1.33;;;;;;;-149.78;100.00;50537.94;5073452;28;20028;-63
2022/01/13 04:22:10;;;;;;;8.05;2.55;;;;;;;-149.78;100.00;50549.69;5055469;28;20064;-63
2022/01/13 04:24:37;;;;;;;4.72;1.52;;;;;;;-149.78;100.00;50557.50;5073283;28;20036;-63
2022/01/13 04:27:02;;;;;;;12.10;2.05;;;;;;;-149.78;100.00;50561.41;5073282;28;20041;-63
2022/01/13 04:29:36;;;;;;;4.65;1.52;;;;;;;-149.78;100.00;50577.06;5072458;28;20052;-63
2022/01/13 04:32:03;;;;;;;6.65;1.50;;;;;;;-149.78;100.00;50571.19;5049713;28;20032;-63
2022/01/13 04:34:29;;;;;;;6.03;1.65;;;;;;;-149.78;100.00;50565.31;5071822;28;20047;-63
2022/01/13 04:36:56;;;;;;;7.75;1.67;;;;;;;-149.78;100.00;50549.69;5072789;28;20115;-63
2022/01/13 04:39:22;;;;;;;10.27;1.85;;;;;;;-149.78;100.00;50506.66;5073017;28;20036;-63
2022/01/13 04:41:48;;;;;;;6.28;2.15;;;;;;;-149.78;100.00;50541.84;5053370;28;20545;-63
2022/01/13 04:44:19;;;;;;;7.18;2.00;;;;;;;-149.78;100.00;50573.16;5046009;28;20037;-63
2022/01/13 04:46:51;;;;;;;7.15;1.70;;;;;;;-149.78;100.00;50598.56;5052458;28;20043;-63
2022/01/13 04:49:18;;;;;;;;;;;;;;;-149.78;100.00;50596.63;5053706;28;20429;-63
2022/01/13 04:51:45;;;;;;;13.13;2.03;;;;;;;-149.78;100.00;50573.16;5058508;28;19944;-63
2022/01/13 04:54:11;;;;;;;5.07;2.10;;;;;;;-149.78;100.00;50580.97;5073174;28;20041;-63
2022/01/13 04:56:45;;;;;;;16.88;2.15;;;;;;;-149.78;100.00;50573.16;5072402;28;20037;-63
2022/01/13 04:59:11;;;;;;;9.45;2.17;;;;;;;-149.78;100.00;50530.13;5073841;28;20381;-63
2022/01/13 05:01:38;;;;;;;7.32;2.10;;;;;;;-149.78;100.00;50577.06;5076820;28;20045;-63
2022/01/13 05:04:06;;;;;;;6.13;2.05;;;;;;;-149.78;100.00;50539.91;5076840;28;20093;-63
2022/01/13 05:06:32;;;;;;;8.45;2.17;;;;;;;-149.78;100.00;50549.69;5076931;28;20152;-63
2022/01/13 05:08:58;;;;;;;12.00;1.80;;;;;;;-149.78;100.00;50579.00;5076837;28;20498;-63
2022/01/13 05:11:24;;;;;;;5.07;1.77;;;;;;;-149.78;100.00;50557.50;5076943;28;20033;-63
2022/01/13 05:13:50;;;;;;;15.18;2.55;;;;;;;-149.78;100.00;50596.63;5059071;28;20345;-63
2022/01/13 05:16:24;;;;;;;5.20;2.20;;;;;;;-149.78;100.00;50573.16;5058718;28;20036;-63
2022/01/13 05:24:14;;;;;;;8.70;2.28;;;;;;;-149.78;100.00;50571.19;5015297;28;20044;-63
2022/01/13 05:26:40;;;;;;;14.20;2.70;;;;;;;-149.78;100.00;50592.72;5076666;28;20361;-63
2022/01/13 05:29:05;;;;;;;7.75;2.25;;;;;;;-149.78;100.00;50561.41;5076488;28;20475;-64
2022/01/13 05:31:33;;;;;;;7.15;2.53;;;;;;;-149.78;100.00;50573.16;5058488;28;20036;-63
2022/01/13 05:33:59;;;;;;;5.00;2.78;;;;;;;-149.78;100.00;50577.06;5076589;28;20041;-63
2022/01/13 05:36:24;;;;;;;10.60;2.55;;;;;;;-149.78;100.00;50586.84;5076450;28;20024;-63
2022/01/13 05:38:50;;;;;;;9.65;3.03;;;;;;;-149.78;100.00;50537.94;5076643;28;20064;-63
2022/01/13 05:41:16;;;;;;;9.82;2.35;;;;;;;-149.78;100.00;50557.50;5076376;28;20032;-63
2022/01/13 05:43:42;;;;;;;8.93;2.70;;;;;;;-149.78;100.00;50557.50;5076210;28;20407;-63
2022/01/13 05:46:08;;;;;;;14.13;2.80;;;;;;;-149.78;100.00;50584.88;5076446;28;20035;-63
2022/01/13 05:48:34;;;;;;;11.23;3.00;;;;;;;-149.78;100.00;50580.97;5075964;28;20463;-63
2022/01/13 05:51:00;;;;;;;7.57;2.75;;;;;;;-149.78;100.00;50557.50;5058258;28;20082;-63
2022/01/13 05:53:25;;;;;;;13.80;3.28;;;;;;;-149.78;100.00;50592.72;5076197;28;20091;-63
2022/01/13 05:55:54;;;;;;;9.55;3.20;;;;;;;-149.78;100.00;50571.19;5058247;28;20507;-63
2022/01/13 05:58:19;;;;;;;9.85;2.85;;;;;;;-149.78;100.00;50592.72;5074882;28;20032;-64
2022/01/13 06:00:45;;;;;;;8.43;3.13;;;;;;;-149.78;100.00;50604.44;5057224;28;20387;-63
2022/01/13 06:03:11;;;;;;;14.13;4.22;;;;;;;-149.78;100.00;50565.31;5075463;28;20398;-63
2022/01/13 06:05:37;;;;;;;18.02;4.30;;;;;;;-149.78;100.00;50545.75;5074236;28;20036;-63
2022/01/13 06:08:03;;;;;;;7.90;3.92;;;;;;;-149.78;100.00;50561.41;5074248;28;20036;-63
2022/01/13 06:10:29;;;;;;;12.10;4.63;;;;;;;-149.78;100.00;50580.97;5074741;28;20143;-63
2022/01/13 06:12:55;;;;;;;13.38;5.28;;;;;;;-149.78;100.00;50577.06;5075351;28;20466;-63
2022/01/13 06:15:23;;;;;;;14.02;5.22;;;;;;;-149.78;100.00;50616.19;5075295;28;20041;-63
2022/01/13 06:17:51;;;;;;;13.05;5.10;;;;;;;-149.78;100.00;50565.31;5075457;28;20020;-63
2022/01/13 06:20:19;;;;;;;10.55;4.85;;;;;;;-149.78;100.00;50580.97;5075130;28;20051;-63
2022/01/13 06:22:47;;;;;;;18.10;5.18;;;;;;;-149.78;100.00;50557.50;5075091;28;20098;-63
2022/01/13 06:25:14;;;;;;;9.80;5.07;;;;;;;-149.78;100.00;50608.34;5075532;28;20089;-63
2022/01/13 06:27:40;;;;;;;13.55;5.22;;;;;;;-149.78;100.00;50553.59;5075371;28;20444;-64
2022/01/13 06:30:08;;;;;;;21.52;6.15;;;;;;;-149.78;100.00;50590.75;5075461;28;20471;-63
2022/01/13 06:32:34;;;;;;;12.65;5.35;;;;;;;-149.78;100.00;50580.97;5075418;28;20090;-63
2022/01/13 06:35:00;;;;;;;14.48;5.57;;;;;;;-149.78;100.00;50563.38;5057612;28;20502;-63
2022/01/13 06:37:26;;;;;;;13.13;6.20;;;;;;;-149.78;100.00;50571.19;5057454;28;20065;-63
2022/01/13 06:39:52;;;;;;;17.60;5.32;;;;;;;-149.78;100.00;50573.16;5075577;28;20151;-63
2022/01/13 06:42:17;;;;;;;11.15;5.53;;;;;;;-149.78;100.00;50596.63;5075369;28;20566;-63
2022/01/13 06:44:44;;;;;;;9.82;5.57;;;;;;;-149.78;100.00;50565.31;5057686;28;20044;-63
2022/01/13 06:47:11;;;;;;;10.48;5.57;;;;;;;-149.78;100.00;50557.50;5075156;28;20025;-63
2022/01/13 06:49:36;;;;;;;18.77;6.35;;;;;;;-149.78;100.00;50608.34;5053431;28;20840;-63
2022/01/13 06:52:03;;;;;;;12.52;5.97;;;;;;;-149.78;100.00;50561.41;5065537;28;20052;-63
2022/01/13 06:54:29;;;;;;;12.20;5.70;;;;;;;-149.78;100.00;50565.31;5073926;28;20373;-63
2022/01/13 06:56:57;;;;;;;14.00;5.60;;;;;;;-149.78;100.00;50549.69;5065992;28;20038;-63
2022/01/13 06:59:23;;;;;;;15.80;6.13;;;;;;;-149.78;100.00;50569.22;5062297;28;20032;-67
2022/01/13 07:01:49;;;;;;;12.90;5.93;;;;;;;-149.78;100.00;50549.69;5069662;28;20364;-67
2022/01/13 07:04:15;;;;;;;12.65;5.95;;;;;;;-149.78;100.00;50608.34;5070837;28;20110;-67
2022/01/13 07:06:42;;;;;;;15.32;5.70;;;;;;;-149.78;100.00;50541.84;5068386;28;20037;-67
2022/01/13 07:09:13;;;;;;;16.58;7.13;;;;;;;-149.78;100.00;50584.88;5053608;28;20498;-67
2022/01/13 07:11:40;;;;;;;15.80;6.55;;;;;;;-149.78;100.00;50600.53;5068332;28;20417;-67
2022/01/13 07:14:06;;;;;;;13.80;5.68;;;;;;;-149.78;100.00;50553.59;5040119;28;20032;-67
2022/01/13 07:16:32;;;;;;;16.35;6.55;;;;;;;-149.78;100.00;50580.97;5066552;28;20653;-67
2022/01/13 07:18:58;;;;;;;15.77;6.22;;;;;;;-149.78;100.00;50569.22;5064065;28;20036;-67
2022/01/13 07:21:26;;;;;;;13.45;5.70;;;;;;;-149.78;100.00;50573.16;5064596;28;20025;-66
2022/01/13 07:23:52;;;;;;;17.67;5.68;;;;;;;-149.78;100.00;50577.06;5069603;28;20040;-67
2022/01/13 07:26:18;;;;;;;21.65;6.28;;;;;;;-149.78;100.00;50561.41;5071188;28;20436;-69
2022/01/13 07:28:44;;;;;;;16.83;6.00;;;;;;;-149.78;100.00;50600.53;5070651;28;20049;-66
2022/01/13 07:31:09;;;;;;;17.60;5.72;;;;;;;-149.78;100.00;50584.88;5073950;28;20115;-67
2022/01/13 07:33:35;;;;;;;14.18;5.53;;;;;;;-149.78;100.00;50573.16;5073763;28;20098;-66
2022/01/13 07:36:00;;;;;;;17.55;5.75;;;;;;;-149.78;100.00;50586.84;5055195;28;20112;-65
2022/01/13 07:38:26;;;;;;;11.63;5.13;;;;;;;-149.78;100.00;50586.84;5073164;28;20822;-65
2022/01/13 07:40:52;;;;;;;13.60;5.63;;;;;;;-149.78;100.00;50580.97;5052180;28;20505;-66
2022/01/13 07:43:22;;;;;;;13.38;5.07;;;;;;;-149.78;100.00;50580.97;5070186;28;20045;-66
2022/01/13 07:45:52;;;;;;;17.70;5.78;;;;;;;-149.78;100.00;50539.91;5065482;28;20041;-65
2022/01/13 07:48:18;;;;;;;17.85;5.63;;;;;;;-149.78;100.00;50571.19;5057275;28;20057;-65
2022/01/13 07:50:44;;;;;;;17.38;5.85;;;;;;;-149.78;100.00;50541.84;5056502;28;20449;-65
2022/01/13 07:53:10;;;;;;;20.85;6.18;;;;;;;-149.78;100.00;50577.06;5066754;28;20033;-65
2022/01/13 07:55:37;;;;;;;20.73;6.40;;;;;;;-149.78;100.00;50606.41;5073703;28;20029;-64
2022/01/13 07:58:03;;;;;;;19.73;6.05;;;;;;;-149.78;100.00;50596.63;5073902;28;20039;-64
2022/01/13 08:00:28;;;;;;;17.40;6.50;;;;;;;-149.78;100.00;50588.78;5055732;28;20044;-65
2022/01/13 08:02:54;;;;;;;18.10;7.32;;;;;;;-149.78;100.00;50612.25;5073711;28;20089;-65
2022/01/13 08:05:19;;;;;;;22.83;7.45;;;;;;;-149.78;100.00;50561.41;5073671;28;20047;-66
2022/01/13 08:07:45;;;;;;;26.85;7.38;;;;;;;-149.78;100.00;50586.84;5067616;28;20040;-66
2022/01/13 08:10:11;;;;;;;20.67;7.13;;;;;;;-149.78;100.00;50557.50;5046170;28;20036;-66
2022/01/13 08:12:38;;;;;;;20.23;6.38;;;;;;;-149.78;100.00;50596.63;5060483;28;20037;-66
2022/01/13 08:15:08;;;;;;;24.58;8.38;;;;;;;-149.78;100.00;50584.88;5053210;28;20040;-66
2022/01/13 08:20:17;;;;;;;23.33;8.57;;;;;;;-149.78;100.00;50573.16;5059277;28;20444;-65
2022/01/13 08:22:43;;;;;;;24.63;9.52;;;;;;;-149.78;100.00;50565.31;5055250;28;20108;-65
2022/01/13 08:25:10;;;;;;;26.92;10.00;;;;;;;-149.78;100.00;50600.53;5060630;28;20380;-65
2022/01/13 08:27:37;;;;;;;35.03;11.65;;;;;;;-149.78;100.00;50624.00;5069083;28;20039;-65
2022/01/13 08:30:07;;;;;;;29.23;11.90;;;;;;;-149.78;100.00;50545.75;5051306;28;20045;-65
2022/01/13 08:32:33;;;;;;;29.10;11.63;;;;;;;-149.78;100.00;50545.75;5059796;28;20064;-65
2022/01/13 08:34:59;;;;;;;31.33;13.52;;;;;;;-149.78;100.00;50573.16;5059089;28;20065;-65
2022/01/13 08:37:25;;;;;;;33.60;13.18;;;;;;;-149.78;100.00;50604.44;5060604;28;20040;-66
2022/01/13 08:39:51;;;;;;;36.83;13.77;;;;;;;-149.78;100.00;50545.75;5035536;28;20044;-66
2022/01/13 08:42:17;;;;;;;36.78;13.77;;;;;;;-149.78;100.00;50557.50;5035038;28;20119;-66
2022/01/13 08:44:42;;;;;;;40.92;13.60;;;;;;;-149.78;100.00;50569.22;5053167;28;20131;-65
2022/01/13 08:47:10;;;;;;;31.95;14.38;;;;;;;-149.78;100.00;50551.63;5053145;28;20037;-66
2022/01/13 08:49:36;;;;;;;40.78;15.43;;;;;;;-149.78;100.00;50577.06;5035448;28;20061;-66
2022/01/13 08:52:03;;;;;;;39.20;14.15;;;;;;;-149.78;100.00;50573.16;5068626;28;20040;-66
2022/01/13 08:54:59;;;;;;;32.03;13.13;;;;;;;-149.78;100.00;50604.44;5069607;28;20045;-66
2022/01/13 08:57:25;;;;;;;37.85;14.45;;;;;;;-149.78;100.00;50573.16;5072776;28;20428;-66
2022/01/13 08:59:51;;;;;;;26.92;11.73;;;;;;;-149.78;100.00;50557.50;5054506;28;20048;-66
2022/01/13 09:02:16;;;;;;;30.17;13.38;;;;;;;-149.78;100.00;50545.75;5059330;28;20033;-66
2022/01/13 09:04:42;;;;;;;40.05;13.23;;;;;;;-149.78;100.00;50559.47;5051297;28;20048;-66
2022/01/13 09:07:08;;;;;;;25.65;12.02;;;;;;;-149.78;100.00;50559.47;5051296;28;20052;-66
2022/01/13 09:09:34;;;;;;;35.67;11.55;;;;;;;-149.78;100.00;50592.72;5072797;28;20100;-67
2022/01/13 09:12:00;;;;;;;27.40;11.23;;;;;;;-149.78;100.00;50557.50;5072611;28;20040;-67
2022/01/13 09:14:28;;;;;;;26.75;9.02;;;;;;;-149.78;100.00;50573.16;5072208;28;20028;-67
2022/01/13 09:16:54;;;;;;;28.35;9.15;;;;;;;-149.78;100.00;50588.78;5054592;28;20047;-67
2022/01/13 09:19:20;;;;;;;19.23;9.18;;;;;;;-149.78;100.00;50557.50;5072263;28;20033;-67
2022/01/13 09:21:48;;;;;;;20.50;8.60;;;;;;;-149.78;100.00;50561.41;5043918;28;20045;-67
2022/01/13 09:24:17;;;;;;;21.17;7.50;;;;;;;-149.78;100.00;50541.84;5052356;28;20449;-67
2022/01/13 09:26:44;;;;;;;20.52;7.95;;;;;;;-149.78;100.00;50580.97;5034557;28;20036;-68
2022/01/13 09:29:11;;;;;;;23.88;8.48;;;;;;;-149.78;100.00;50545.75;5052208;28;20119;-68
2022/01/13 09:31:39;;;;;;;21.48;7.90;;;;;;;-149.78;100.00;50577.06;5034601;28;20051;-68
2022/01/13 09:34:06;;;;;;;17.67;7.47;;;;;;;-149.78;100.00;50582.94;5052581;28;20044;-68
2022/01/13 09:36:33;;;;;;;18.23;7.93;;;;;;;-149.78;100.00;50535.97;5034697;28;20048;-68
2022/01/13 09:39:05;;;;;;;17.60;7.25;;;;;;;-149.78;100.00;50573.16;5052265;28;20025;-68
2022/01/13 09:41:32;;;;;;;20.85;7.32;;;;;;;-149.78;100.00;50555.53;5052276;28;20033;-68
2022/01/13 09:44:01;;;;;;;21.23;7.07;;;;;;;-149.78;100.00;50563.38;5054766;28;20353;-67
2022/01/13 09:46:28;;;;;;;15.98;7.43;;;;;;;-149.78;100.00;50588.78;5056342;28;20128;-68
2022/01/13 09:48:55;;;;;;;18.45;7.28;;;;;;;-149.78;100.00;50553.59;5056181;28;20029;-68
2022/01/13 09:51:26;;;;;;;21.42;7.07;;;;;;;-149.78;100.00;50561.41;5060781;28;20056;-68
2022/01/13 09:53:52;;;;;;;15.70;6.55;;;;;;;-149.78;100.00;50565.31;5076020;28;20041;-68
2022/01/13 09:56:21;;;;;;;18.23;5.88;;;;;;;-149.78;100.00;50565.31;5075830;28;20035;-68
2022/01/13 09:58:46;;;;;;;18.75;6.38;;;;;;;-149.78;100.00;50534.03;5075610;28;20033;-68
2022/01/13 10:01:12;;;;;;;17.65;6.63;;;;;;;-149.78;100.00;50557.50;5076196;28;20396;-68
2022/01/13 10:03:38;;;;;;;16.63;5.70;;;;;;;-149.78;100.00;50526.22;5049665;28;20052;-68
2022/01/13 10:06:15;;;;;;;11.93;5.15;;;;;;;-149.78;100.00;50557.50;5050355;28;20070;-68
2022/01/13 10:08:42;;;;;;;16.42;6.03;;;;;;;-149.78;100.00;50577.06;5076026;28;20033;-68
2022/01/13 10:11:29;;;;;;;11.23;5.20;;;;;;;-149.78;100.00;50561.41;5075963;28;20036;-68
2022/01/13 10:17:02;;;;;;;21.75;5.13;;;;;;;-149.78;100.00;50545.75;5075726;28;20132;-68
2022/01/13 10:19:33;;;;;;;9.13;4.85;;;;;;;-149.78;100.00;50532.06;5066146;28;20029;-68
2022/01/13 10:21:59;;;;;;;;;;;;;;;-149.78;100.00;50518.38;5062980;28;20027;-68
2022/01/13 10:24:27;;;;;;;12.82;4.50;;;;;;;-149.78;100.00;50577.06;5075446;28;19912;-68
2022/01/13 10:27:00;;;;;;;9.60;4.13;;;;;;;-149.78;100.00;50604.44;5063110;28;20081;-68
2022/01/13 10:29:40;;;;;;;12.25;4.70;;;;;;;-149.78;100.00;50549.69;5057131;28;20350;-68
2022/01/13 10:32:08;;;;;;;15.93;4.13;;;;;;;-149.78;100.00;50584.88;5055534;28;20056;-68
2022/01/13 10:34:39;;;;;;;10.93;4.32;;;;;;;-149.78;100.00;50573.16;5055341;28;20028;-68
2022/01/13 10:37:19;;;;;;;12.77;4.00;;;;;;;-149.78;100.00;50541.84;5055373;28;20461;-68
2022/01/13 10:39:51;;;;;;;9.20;3.92;;;;;;;-149.78;100.00;50530.13;5055452;28;20029;-68
2022/01/13 10:45:17;;;;;;;11.70;3.97;;;;;;;-149.78;100.00;50534.03;5055347;28;20036;-68
2022/01/13 10:48:09;;;;;;;10.00;3.90;;;;;;;-149.78;100.00;50551.63;5055066;28;20098;-68
2022/01/13 10:50:46;;;;;;;9.20;3.72;;;;;;;-149.78;100.00;50543.81;5042247;28;20546;-68
2022/01/13 10:53:33;;;;;;;14.40;4.50;;;;;;;-149.78;100.00;50588.78;5055235;28;20120;-64
2022/01/13 10:56:00;;;;;;;11.90;4.65;;;;;;;-149.78;100.00;50541.84;5054245;28;20037;-64
2022/01/13 10:58:41;;;;;;;17.08;5.45;;;;;;;-149.78;100.00;50565.31;5062038;28;20070;-64
2022/01/13 11:01:10;;;;;;;13.65;5.63;;;;;;;-149.78;100.00;50537.94;5060307;28;20037;-64
2022/01/13 11:03:39;;;;;;;16.17;5.32;;;;;;;-149.78;100.00;50582.94;5062912;28;20086;-64
2022/01/13 11:06:08;;;;;;;12.60;5.10;;;;;;;-149.78;100.00;50530.13;5063063;28;20051;-64
2022/01/13 11:08:44;;;;;;;12.57;4.97;;;;;;;-149.78;100.00;50565.31;5074280;28;20462;-64
2022/01/13 11:11:20;;;;;;;9.35;4.80;;;;;;;-149.78;100.00;50561.41;5053197;28;20557;-64
2022/01/13 11:13:53;;;;;;;13.27;5.00;;;;;;;-149.78;100.00;50541.84;5067490;28;20062;-64
2022/01/13 11:16:19;;;;;;;11.88;4.05;;;;;;;-149.78;100.00;50561.41;5065767;28;20066;-68
2022/01/13 11:18:46;;;;;;;11.63;3.97;;;;;;;-149.78;100.00;50541.84;5054410;28;20036;-64
2022/01/13 11:21:11;;;;;;;10.20;3.50;;;;;;;-149.78;100.00;50545.75;5053885;28;20036;-68
2022/01/13 11:23:38;;;;;;;7.85;3.33;;;;;;;-149.78;100.00;50526.22;5036241;28;20442;-68
2022/01/13 11:26:06;;;;;;;14.38;3.42;;;;;;;-149.78;100.00;50532.06;5071038;28;20106;-68
2022/01/13 11:28:37;;;;;;;7.95;3.40;;;;;;;-149.78;100.00;50530.13;5073875;28;20052;-68
2022/01/13 11:31:02;;;;;;;7.25;3.20;;;;;;;-149.78;100.00;50530.13;5056175;28;20814;-68
2022/01/13 11:33:28;;;;;;;10.35;3.50;;;;;;;-149.78;100.00;50539.91;5064108;28;20033;-68